sensor_id;sensor_type;location;lat;lon;timestamp;P1;durP1;ratioP1;P2;durP2;ratioP2
6983;SDS011;3532;51.118;7.210;2022-08-19T00:02:21;14.73;;;13.53;;
6983;SDS011;3532;51.118;7.210;2022-08-19T00:04:46;14.13;;;12.93;;
6983;SDS011;3532;51.118;7.210;2022-08-19T00:07:13;13.50;;;12.30;;
6983;SDS011;3532;51.118;7.210;2022-08-19T00:09:38;14.00;;;12.70;;
6983;SDS011;3532;51.118;7.210;2022-08-19T00:12:04;13.33;;;12.23;;
6983;SDS011;3532;51.118;7.210;2022-08-19T00:14:29;14.57;;;13.27;;
6983;SDS011;3532;51.118;7.210;2022-08-19T00:16:56;13.50;;;12.30;;
6983;SDS011;3532;51.118;7.210;2022-08-19T00:19:22;13.33;;;12.13;;
6983;SDS011;3532;51.118;7.210;2022-08-19T00:21:48;14.03;;;12.80;;
6983;SDS011;3532;51.118;7.210;2022-08-19T00:24:13;14.00;;;12.80;;
6983;SDS011;3532;51.118;7.210;2022-08-19T00:26:40;13.70;;;12.50;;
6983;SDS011;3532;51.118;7.210;2022-08-19T00:29:08;12.63;;;11.30;;
6983;SDS011;3532;51.118;7.210;2022-08-19T00:31:35;11.73;;;10.83;;
6983;SDS011;3532;51.118;7.210;2022-08-19T00:34:00;12.23;;;11.07;;
6983;SDS011;3532;51.118;7.210;2022-08-19T00:36:26;12.77;;;11.67;;
6983;SDS011;3532;51.118;7.210;2022-08-19T00:38:51;11.83;;;10.63;;
6983;SDS011;3532;51.118;7.210;2022-08-19T00:41:18;11.40;;;10.40;;
6983;SDS011;3532;51.118;7.210;2022-08-19T00:46:23;11.80;;;10.70;;
6983;SDS011;3532;51.118;7.210;2022-08-19T00:48:49;12.10;;;11.10;;
6983;SDS011;3532;51.118;7.210;2022-08-19T00:51:14;12.10;;;11.10;;
6983;SDS011;3532;51.118;7.210;2022-08-19T00:53:39;11.37;;;10.27;;
6983;SDS011;3532;51.118;7.210;2022-08-19T00:56:05;11.10;;;10.20;;
6983;SDS011;3532;51.118;7.210;2022-08-19T00:58:32;13.63;;;12.37;;
6983;SDS011;3532;51.118;7.210;2022-08-19T01:00:59;12.03;;;11.03;;
6983;SDS011;3532;51.118;7.210;2022-08-19T01:03:25;12.33;;;11.33;;
6983;SDS011;3532;51.118;7.210;2022-08-19T01:05:51;12.37;;;11.27;;
6983;SDS011;3532;51.118;7.210;2022-08-19T01:08:18;11.33;;;10.40;;
6983;SDS011;3532;51.118;7.210;2022-08-19T01:10:45;11.87;;;10.77;;
6983;SDS011;3532;51.118;7.210;2022-08-19T01:13:14;11.97;;;10.83;;
6983;SDS011;3532;51.118;7.210;2022-08-19T01:15:42;12.00;;;10.90;;
6983;SDS011;3532;51.118;7.210;2022-08-19T01:18:10;10.10;;;9.30;;
6983;SDS011;3532;51.118;7.210;2022-08-19T01:20:36;11.80;;;10.80;;
6983;SDS011;3532;51.118;7.210;2022-08-19T01:23:02;10.97;;;9.97;;
6983;SDS011;3532;51.118;7.210;2022-08-19T01:25:33;11.27;;;10.27;;
6983;SDS011;3532;51.118;7.210;2022-08-19T01:28:02;12.13;;;11.00;;
6983;SDS011;3532;51.118;7.210;2022-08-19T01:30:29;11.57;;;10.57;;
6983;SDS011;3532;51.118;7.210;2022-08-19T01:32:57;11.80;;;10.63;;
6983;SDS011;3532;51.118;7.210;2022-08-19T01:35:25;10.87;;;9.97;;
6983;SDS011;3532;51.118;7.210;2022-08-19T01:37:59;11.27;;;10.17;;
6983;SDS011;3532;51.118;7.210;2022-08-19T01:40:29;11.97;;;10.87;;
6983;SDS011;3532;51.118;7.210;2022-08-19T01:42:56;11.03;;;10.03;;
6983;SDS011;3532;51.118;7.210;2022-08-19T01:45:22;10.60;;;9.70;;
6983;SDS011;3532;51.118;7.210;2022-08-19T01:47:49;11.33;;;10.33;;
6983;SDS011;3532;51.118;7.210;2022-08-19T01:50:15;11.57;;;10.47;;
6983;SDS011;3532;51.118;7.210;2022-08-19T01:52:41;12.53;;;11.20;;
6983;SDS011;3532;51.118;7.210;2022-08-19T01:55:08;11.53;;;10.53;;
6983;SDS011;3532;51.118;7.210;2022-08-19T01:57:36;11.93;;;10.87;;
6983;SDS011;3532;51.118;7.210;2022-08-19T02:00:04;10.53;;;9.57;;
6983;SDS011;3532;51.118;7.210;2022-08-19T02:02:31;10.03;;;9.13;;
6983;SDS011;3532;51.118;7.210;2022-08-19T02:04:57;10.63;;;9.53;;
6983;SDS011;3532;51.118;7.210;2022-08-19T02:07:23;12.13;;;11.03;;
6983;SDS011;3532;51.118;7.210;2022-08-19T02:09:48;11.70;;;10.70;;
6983;SDS011;3532;51.118;7.210;2022-08-19T02:12:14;11.17;;;10.17;;
6983;SDS011;3532;51.118;7.210;2022-08-19T02:14:41;12.90;;;11.67;;
6983;SDS011;3532;51.118;7.210;2022-08-19T02:17:06;12.73;;;11.33;;
6983;SDS011;3532;51.118;7.210;2022-08-19T02:19:31;10.73;;;9.73;;
6983;SDS011;3532;51.118;7.210;2022-08-19T02:21:57;12.67;;;11.33;;
6983;SDS011;3532;51.118;7.210;2022-08-19T02:24:24;11.50;;;10.60;;
6983;SDS011;3532;51.118;7.210;2022-08-19T02:26:49;11.27;;;10.37;;
6983;SDS011;3532;51.118;7.210;2022-08-19T02:29:14;10.57;;;9.60;;
6983;SDS011;3532;51.118;7.210;2022-08-19T02:31:40;10.87;;;9.97;;
6983;SDS011;3532;51.118;7.210;2022-08-19T02:34:05;10.57;;;9.67;;
6983;SDS011;3532;51.118;7.210;2022-08-19T02:36:31;11.27;;;10.30;;
6983;SDS011;3532;51.118;7.210;2022-08-19T02:38:56;11.50;;;10.50;;
6983;SDS011;3532;51.118;7.210;2022-08-19T02:41:23;11.43;;;10.43;;
6983;SDS011;3532;51.118;7.210;2022-08-19T02:43:55;10.73;;;9.73;;
6983;SDS011;3532;51.118;7.210;2022-08-19T02:46:26;12.30;;;11.00;;
6983;SDS011;3532;51.118;7.210;2022-08-19T02:48:54;10.80;;;9.83;;
6983;SDS011;3532;51.118;7.210;2022-08-19T02:51:22;12.83;;;11.77;;
6983;SDS011;3532;51.118;7.210;2022-08-19T02:53:49;12.07;;;11.00;;
6983;SDS011;3532;51.118;7.210;2022-08-19T02:56:14;13.30;;;11.20;;
6983;SDS011;3532;51.118;7.210;2022-08-19T02:58:40;14.70;;;13.00;;
6983;SDS011;3532;51.118;7.210;2022-08-19T03:01:06;12.40;;;11.17;;
6983;SDS011;3532;51.118;7.210;2022-08-19T03:03:32;12.70;;;10.73;;
6983;SDS011;3532;51.118;7.210;2022-08-19T03:06:09;11.67;;;10.67;;
6983;SDS011;3532;51.118;7.210;2022-08-19T03:08:38;13.03;;;11.93;;
6983;SDS011;3532;51.118;7.210;2022-08-19T03:11:05;12.33;;;11.23;;
6983;SDS011;3532;51.118;7.210;2022-08-19T03:13:30;12.37;;;11.13;;
6983;SDS011;3532;51.118;7.210;2022-08-19T03:15:56;12.37;;;11.27;;
6983;SDS011;3532;51.118;7.210;2022-08-19T03:18:22;12.73;;;11.53;;
6983;SDS011;3532;51.118;7.210;2022-08-19T03:20:48;11.77;;;10.67;;
6983;SDS011;3532;51.118;7.210;2022-08-19T03:23:15;13.43;;;12.23;;
6983;SDS011;3532;51.118;7.210;2022-08-19T03:25:42;12.63;;;11.53;;
6983;SDS011;3532;51.118;7.210;2022-08-19T03:28:10;11.97;;;10.97;;
6983;SDS011;3532;51.118;7.210;2022-08-19T03:30:35;13.57;;;12.17;;
6983;SDS011;3532;51.118;7.210;2022-08-19T03:33:00;11.70;;;10.60;;
6983;SDS011;3532;51.118;7.210;2022-08-19T03:35:27;13.47;;;12.10;;
6983;SDS011;3532;51.118;7.210;2022-08-19T03:37:52;12.00;;;10.80;;
6983;SDS011;3532;51.118;7.210;2022-08-19T03:40:17;12.13;;;11.10;;
6983;SDS011;3532;51.118;7.210;2022-08-19T03:42:43;12.27;;;11.17;;
6983;SDS011;3532;51.118;7.210;2022-08-19T03:45:09;12.87;;;11.77;;
6983;SDS011;3532;51.118;7.210;2022-08-19T03:47:35;12.40;;;11.00;;
6983;SDS011;3532;51.118;7.210;2022-08-19T03:50:01;13.10;;;11.77;;
6983;SDS011;3532;51.118;7.210;2022-08-19T03:52:27;11.80;;;10.80;;
6983;SDS011;3532;51.118;7.210;2022-08-19T03:54:52;12.43;;;11.33;;
6983;SDS011;3532;51.118;7.210;2022-08-19T03:57:18;12.53;;;11.33;;
6983;SDS011;3532;51.118;7.210;2022-08-19T03:59:43;14.13;;;12.80;;
6983;SDS011;3532;51.118;7.210;2022-08-19T04:02:10;12.80;;;11.60;;
6983;SDS011;3532;51.118;7.210;2022-08-19T04:04:37;12.50;;;11.40;;
6983;SDS011;3532;51.118;7.210;2022-08-19T04:07:03;14.23;;;12.97;;
6983;SDS011;3532;51.118;7.210;2022-08-19T04:09:28;13.47;;;12.23;;
6983;SDS011;3532;51.118;7.210;2022-08-19T04:11:56;14.47;;;12.97;;
6983;SDS011;3532;51.118;7.210;2022-08-19T04:14:23;12.57;;;11.47;;
6983;SDS011;3532;51.118;7.210;2022-08-19T04:16:50;12.27;;;11.10;;
6983;SDS011;3532;51.118;7.210;2022-08-19T04:19:16;11.97;;;10.83;;
6983;SDS011;3532;51.118;7.210;2022-08-19T04:21:43;12.57;;;11.37;;
6983;SDS011;3532;51.118;7.210;2022-08-19T04:24:10;12.60;;;11.40;;
6983;SDS011;3532;51.118;7.210;2022-08-19T04:26:36;11.77;;;10.77;;
6983;SDS011;3532;51.118;7.210;2022-08-19T04:29:03;12.03;;;10.93;;
6983;SDS011;3532;51.118;7.210;2022-08-19T04:31:32;12.93;;;11.83;;
6983;SDS011;3532;51.118;7.210;2022-08-19T04:34:00;12.50;;;11.50;;
6983;SDS011;3532;51.118;7.210;2022-08-19T04:36:28;11.60;;;10.50;;
6983;SDS011;3532;51.118;7.210;2022-08-19T04:38:56;12.40;;;11.30;;
6983;SDS011;3532;51.118;7.210;2022-08-19T04:41:22;12.53;;;10.33;;
6983;SDS011;3532;51.118;7.210;2022-08-19T04:44:07;11.43;;;10.43;;
6983;SDS011;3532;51.118;7.210;2022-08-19T04:46:32;11.40;;;10.40;;
6983;SDS011;3532;51.118;7.210;2022-08-19T04:48:58;11.57;;;10.63;;
6983;SDS011;3532;51.118;7.210;2022-08-19T04:51:24;10.73;;;9.73;;
6983;SDS011;3532;51.118;7.210;2022-08-19T04:53:50;12.97;;;11.87;;
6983;SDS011;3532;51.118;7.210;2022-08-19T04:56:16;12.53;;;11.33;;
6983;SDS011;3532;51.118;7.210;2022-08-19T04:58:44;13.27;;;12.07;;
6983;SDS011;3532;51.118;7.210;2022-08-19T05:01:23;16.00;;;12.27;;
6983;SDS011;3532;51.118;7.210;2022-08-19T05:03:50;12.67;;;11.57;;
6983;SDS011;3532;51.118;7.210;2022-08-19T05:06:18;12.30;;;11.20;;
6983;SDS011;3532;51.118;7.210;2022-08-19T05:08:44;12.70;;;11.60;;
6983;SDS011;3532;51.118;7.210;2022-08-19T05:11:24;12.93;;;11.77;;
6983;SDS011;3532;51.118;7.210;2022-08-19T05:13:50;12.70;;;11.70;;
6983;SDS011;3532;51.118;7.210;2022-08-19T05:16:17;13.07;;;11.87;;
6983;SDS011;3532;51.118;7.210;2022-08-19T05:18:45;12.60;;;11.40;;
6983;SDS011;3532;51.118;7.210;2022-08-19T05:21:29;12.33;;;11.13;;
6983;SDS011;3532;51.118;7.210;2022-08-19T05:24:14;11.13;;;10.13;;
6983;SDS011;3532;51.118;7.210;2022-08-19T05:26:40;12.50;;;11.47;;
6983;SDS011;3532;51.118;7.210;2022-08-19T05:29:08;11.40;;;10.37;;
6983;SDS011;3532;51.118;7.210;2022-08-19T05:31:34;12.10;;;11.00;;
6983;SDS011;3532;51.118;7.210;2022-08-19T05:34:00;11.93;;;10.93;;
6983;SDS011;3532;51.118;7.210;2022-08-19T05:36:27;12.57;;;11.40;;
6983;SDS011;3532;51.118;7.210;2022-08-19T05:38:53;12.27;;;11.27;;
6983;SDS011;3532;51.118;7.210;2022-08-19T05:41:19;11.90;;;10.70;;
6983;SDS011;3532;51.118;7.210;2022-08-19T05:43:45;12.17;;;11.07;;
6983;SDS011;3532;51.118;7.210;2022-08-19T05:46:16;13.47;;;12.27;;
6983;SDS011;3532;51.118;7.210;2022-08-19T05:48:43;13.70;;;12.50;;
6983;SDS011;3532;51.118;7.210;2022-08-19T05:51:08;12.10;;;10.90;;
6983;SDS011;3532;51.118;7.210;2022-08-19T05:53:34;12.60;;;10.67;;
6983;SDS011;3532;51.118;7.210;2022-08-19T05:56:04;12.30;;;11.20;;
6983;SDS011;3532;51.118;7.210;2022-08-19T05:58:30;12.00;;;10.90;;
6983;SDS011;3532;51.118;7.210;2022-08-19T06:00:56;11.70;;;10.67;;
6983;SDS011;3532;51.118;7.210;2022-08-19T06:03:21;10.40;;;9.50;;
6983;SDS011;3532;51.118;7.210;2022-08-19T06:05:47;10.60;;;9.63;;
6983;SDS011;3532;51.118;7.210;2022-08-19T06:08:12;10.60;;;9.50;;
6983;SDS011;3532;51.118;7.210;2022-08-19T06:10:37;10.83;;;9.87;;
6983;SDS011;3532;51.118;7.210;2022-08-19T06:13:03;9.97;;;9.07;;
6983;SDS011;3532;51.118;7.210;2022-08-19T06:15:30;11.63;;;10.63;;
6983;SDS011;3532;51.118;7.210;2022-08-19T06:17:56;12.50;;;11.20;;
6983;SDS011;3532;51.118;7.210;2022-08-19T06:20:21;14.00;;;12.80;;
6983;SDS011;3532;51.118;7.210;2022-08-19T06:22:47;13.70;;;12.50;;
6983;SDS011;3532;51.118;7.210;2022-08-19T06:25:15;14.50;;;13.20;;
6983;SDS011;3532;51.118;7.210;2022-08-19T06:27:41;17.47;;;15.67;;
6983;SDS011;3532;51.118;7.210;2022-08-19T06:30:07;16.13;;;14.73;;
6983;SDS011;3532;51.118;7.210;2022-08-19T06:32:33;18.83;;;16.90;;
6983;SDS011;3532;51.118;7.210;2022-08-19T06:34:58;17.33;;;15.80;;
6983;SDS011;3532;51.118;7.210;2022-08-19T06:37:23;16.80;;;15.30;;
6983;SDS011;3532;51.118;7.210;2022-08-19T06:39:49;20.77;;;18.83;;
6983;SDS011;3532;51.118;7.210;2022-08-19T06:42:15;22.30;;;20.13;;
6983;SDS011;3532;51.118;7.210;2022-08-19T06:44:43;22.83;;;20.70;;
6983;SDS011;3532;51.118;7.210;2022-08-19T06:47:12;23.97;;;21.67;;
6983;SDS011;3532;51.118;7.210;2022-08-19T06:49:38;23.87;;;21.67;;
6983;SDS011;3532;51.118;7.210;2022-08-19T06:52:04;28.23;;;25.40;;
6983;SDS011;3532;51.118;7.210;2022-08-19T06:54:30;28.73;;;25.93;;
6983;SDS011;3532;51.118;7.210;2022-08-19T06:56:56;29.87;;;27.07;;
6983;SDS011;3532;51.118;7.210;2022-08-19T06:59:27;28.40;;;25.70;;
6983;SDS011;3532;51.118;7.210;2022-08-19T07:01:53;32.13;;;28.83;;
6983;SDS011;3532;51.118;7.210;2022-08-19T07:04:24;30.83;;;27.90;;
6983;SDS011;3532;51.118;7.210;2022-08-19T07:06:56;30.87;;;27.97;;
6983;SDS011;3532;51.118;7.210;2022-08-19T07:09:26;33.13;;;29.87;;
6983;SDS011;3532;51.118;7.210;2022-08-19T07:11:52;33.93;;;30.60;;
6983;SDS011;3532;51.118;7.210;2022-08-19T07:14:19;32.97;;;29.63;;
6983;SDS011;3532;51.118;7.210;2022-08-19T07:16:46;35.93;;;32.43;;
6983;SDS011;3532;51.118;7.210;2022-08-19T07:19:13;32.57;;;29.43;;
6983;SDS011;3532;51.118;7.210;2022-08-19T07:21:39;37.53;;;33.90;;
6983;SDS011;3532;51.118;7.210;2022-08-19T07:24:05;37.30;;;33.50;;
6983;SDS011;3532;51.118;7.210;2022-08-19T07:26:32;37.13;;;33.33;;
6983;SDS011;3532;51.118;7.210;2022-08-19T07:28:58;34.97;;;31.50;;
6983;SDS011;3532;51.118;7.210;2022-08-19T07:31:27;37.53;;;33.67;;
6983;SDS011;3532;51.118;7.210;2022-08-19T07:33:53;36.27;;;32.53;;
6983;SDS011;3532;51.118;7.210;2022-08-19T07:36:21;36.50;;;32.93;;
6983;SDS011;3532;51.118;7.210;2022-08-19T07:38:55;37.50;;;33.50;;
6983;SDS011;3532;51.118;7.210;2022-08-19T07:41:22;40.60;;;36.33;;
6983;SDS011;3532;51.118;7.210;2022-08-19T07:43:49;41.63;;;37.33;;
6983;SDS011;3532;51.118;7.210;2022-08-19T07:46:15;39.33;;;35.43;;
6983;SDS011;3532;51.118;7.210;2022-08-19T07:48:42;42.83;;;38.37;;
6983;SDS011;3532;51.118;7.210;2022-08-19T07:51:12;43.70;;;39.00;;
6983;SDS011;3532;51.118;7.210;2022-08-19T07:53:38;39.07;;;34.97;;
6983;SDS011;3532;51.118;7.210;2022-08-19T07:56:04;38.10;;;34.33;;
6983;SDS011;3532;51.118;7.210;2022-08-19T07:58:34;44.93;;;40.60;;
6983;SDS011;3532;51.118;7.210;2022-08-19T08:01:00;39.80;;;35.90;;
6983;SDS011;3532;51.118;7.210;2022-08-19T08:03:26;39.50;;;35.60;;
6983;SDS011;3532;51.118;7.210;2022-08-19T08:06:12;39.03;;;35.13;;
6983;SDS011;3532;51.118;7.210;2022-08-19T08:08:59;40.47;;;36.27;;
6983;SDS011;3532;51.118;7.210;2022-08-19T08:12:04;39.83;;;35.33;;
6983;SDS011;3532;51.118;7.210;2022-08-19T08:14:31;43.57;;;39.13;;
6983;SDS011;3532;51.118;7.210;2022-08-19T08:17:01;41.13;;;37.23;;
6983;SDS011;3532;51.118;7.210;2022-08-19T08:19:28;39.17;;;35.47;;
6983;SDS011;3532;51.118;7.210;2022-08-19T08:21:54;37.03;;;33.43;;
6983;SDS011;3532;51.118;7.210;2022-08-19T08:24:21;36.23;;;32.73;;
6983;SDS011;3532;51.118;7.210;2022-08-19T08:26:47;39.13;;;35.13;;
6983;SDS011;3532;51.118;7.210;2022-08-19T08:29:13;39.23;;;35.43;;
6983;SDS011;3532;51.118;7.210;2022-08-19T08:31:41;34.60;;;31.30;;
6983;SDS011;3532;51.118;7.210;2022-08-19T08:34:07;33.97;;;30.73;;
6983;SDS011;3532;51.118;7.210;2022-08-19T08:36:35;32.97;;;29.77;;
6983;SDS011;3532;51.118;7.210;2022-08-19T08:39:11;30.77;;;27.80;;
6983;SDS011;3532;51.118;7.210;2022-08-19T08:44:19;33.73;;;30.20;;
6983;SDS011;3532;51.118;7.210;2022-08-19T08:46:49;35.67;;;32.03;;
6983;SDS011;3532;51.118;7.210;2022-08-19T08:49:24;36.90;;;33.43;;
6983;SDS011;3532;51.118;7.210;2022-08-19T08:52:09;37.10;;;33.33;;
6983;SDS011;3532;51.118;7.210;2022-08-19T08:54:41;36.27;;;32.83;;
6983;SDS011;3532;51.118;7.210;2022-08-19T08:57:19;37.67;;;33.90;;
6983;SDS011;3532;51.118;7.210;2022-08-19T08:59:49;41.00;;;36.67;;
6983;SDS011;3532;51.118;7.210;2022-08-19T09:02:16;40.37;;;34.70;;
6983;SDS011;3532;51.118;7.210;2022-08-19T09:04:42;34.87;;;31.57;;
6983;SDS011;3532;51.118;7.210;2022-08-19T09:09:49;38.53;;;34.63;;
6983;SDS011;3532;51.118;7.210;2022-08-19T09:12:35;40.43;;;36.53;;
6983;SDS011;3532;51.118;7.210;2022-08-19T09:15:07;37.43;;;33.80;;
6983;SDS011;3532;51.118;7.210;2022-08-19T09:17:34;33.13;;;29.80;;
6983;SDS011;3532;51.118;7.210;2022-08-19T09:20:02;31.83;;;28.73;;
6983;SDS011;3532;51.118;7.210;2022-08-19T09:22:38;31.60;;;28.53;;
6983;SDS011;3532;51.118;7.210;2022-08-19T09:25:05;30.20;;;27.30;;
6983;SDS011;3532;51.118;7.210;2022-08-19T09:27:35;30.50;;;27.23;;
6983;SDS011;3532;51.118;7.210;2022-08-19T09:30:03;31.30;;;28.03;;
6983;SDS011;3532;51.118;7.210;2022-08-19T09:32:29;28.70;;;26.00;;
6983;SDS011;3532;51.118;7.210;2022-08-19T09:34:55;28.53;;;25.73;;
6983;SDS011;3532;51.118;7.210;2022-08-19T09:37:22;26.97;;;24.13;;
6983;SDS011;3532;51.118;7.210;2022-08-19T09:39:49;29.80;;;26.07;;
6983;SDS011;3532;51.118;7.210;2022-08-19T09:42:14;28.57;;;25.57;;
6983;SDS011;3532;51.118;7.210;2022-08-19T09:44:40;26.73;;;24.13;;
6983;SDS011;3532;51.118;7.210;2022-08-19T09:47:06;27.77;;;25.00;;
6983;SDS011;3532;51.118;7.210;2022-08-19T09:49:33;27.63;;;24.90;;
6983;SDS011;3532;51.118;7.210;2022-08-19T09:51:58;28.00;;;25.00;;
6983;SDS011;3532;51.118;7.210;2022-08-19T09:54:24;27.50;;;24.80;;
6983;SDS011;3532;51.118;7.210;2022-08-19T09:56:50;26.20;;;23.80;;
6983;SDS011;3532;51.118;7.210;2022-08-19T09:59:16;27.27;;;24.70;;
6983;SDS011;3532;51.118;7.210;2022-08-19T10:01:41;24.20;;;22.00;;
6983;SDS011;3532;51.118;7.210;2022-08-19T10:04:07;24.00;;;21.80;;
6983;SDS011;3532;51.118;7.210;2022-08-19T10:06:36;24.33;;;21.93;;
6983;SDS011;3532;51.118;7.210;2022-08-19T10:09:03;22.83;;;20.63;;
6983;SDS011;3532;51.118;7.210;2022-08-19T10:11:31;25.23;;;22.10;;
6983;SDS011;3532;51.118;7.210;2022-08-19T10:13:57;23.83;;;21.60;;
6983;SDS011;3532;51.118;7.210;2022-08-19T10:16:23;26.30;;;23.90;;
6983;SDS011;3532;51.118;7.210;2022-08-19T10:18:49;25.43;;;22.77;;
6983;SDS011;3532;51.118;7.210;2022-08-19T10:21:17;26.77;;;24.20;;
6983;SDS011;3532;51.118;7.210;2022-08-19T10:23:46;27.27;;;24.67;;
6983;SDS011;3532;51.118;7.210;2022-08-19T10:26:14;24.97;;;22.77;;
6983;SDS011;3532;51.118;7.210;2022-08-19T10:28:41;28.63;;;25.70;;
6983;SDS011;3532;51.118;7.210;2022-08-19T10:31:07;28.20;;;25.50;;
6983;SDS011;3532;51.118;7.210;2022-08-19T10:33:34;27.43;;;24.77;;
6983;SDS011;3532;51.118;7.210;2022-08-19T10:36:01;24.87;;;22.33;;
6983;SDS011;3532;51.118;7.210;2022-08-19T10:38:31;23.40;;;21.13;;
6983;SDS011;3532;51.118;7.210;2022-08-19T10:40:56;24.83;;;22.40;;
6983;SDS011;3532;51.118;7.210;2022-08-19T10:43:21;21.90;;;19.73;;
6983;SDS011;3532;51.118;7.210;2022-08-19T10:45:53;24.23;;;21.70;;
6983;SDS011;3532;51.118;7.210;2022-08-19T10:48:21;22.93;;;20.47;;
6983;SDS011;3532;51.118;7.210;2022-08-19T10:50:46;20.53;;;18.53;;
6983;SDS011;3532;51.118;7.210;2022-08-19T10:53:30;21.37;;;19.33;;
6983;SDS011;3532;51.118;7.210;2022-08-19T10:55:56;21.90;;;19.80;;
6983;SDS011;3532;51.118;7.210;2022-08-19T10:58:40;22.10;;;19.77;;
6983;SDS011;3532;51.118;7.210;2022-08-19T11:01:06;26.17;;;23.57;;
6983;SDS011;3532;51.118;7.210;2022-08-19T11:03:31;22.93;;;20.63;;
6983;SDS011;3532;51.118;7.210;2022-08-19T11:06:01;22.40;;;20.20;;
6983;SDS011;3532;51.118;7.210;2022-08-19T11:08:31;20.47;;;18.47;;
6983;SDS011;3532;51.118;7.210;2022-08-19T11:10:58;19.90;;;18.07;;
6983;SDS011;3532;51.118;7.210;2022-08-19T11:13:29;22.73;;;18.67;;
6983;SDS011;3532;51.118;7.210;2022-08-19T11:16:04;17.97;;;16.20;;
6983;SDS011;3532;51.118;7.210;2022-08-19T11:18:40;20.27;;;18.37;;
6983;SDS011;3532;51.118;7.210;2022-08-19T11:21:15;19.43;;;17.53;;
6983;SDS011;3532;51.118;7.210;2022-08-19T11:23:42;18.77;;;16.97;;
6983;SDS011;3532;51.118;7.210;2022-08-19T11:26:08;16.50;;;14.80;;
6983;SDS011;3532;51.118;7.210;2022-08-19T11:28:34;17.90;;;16.30;;
6983;SDS011;3532;51.118;7.210;2022-08-19T11:30:59;14.80;;;13.27;;
6983;SDS011;3532;51.118;7.210;2022-08-19T11:33:25;16.83;;;15.33;;
6983;SDS011;3532;51.118;7.210;2022-08-19T11:35:51;18.37;;;16.60;;
6983;SDS011;3532;51.118;7.210;2022-08-19T11:38:17;18.30;;;16.70;;
6983;SDS011;3532;51.118;7.210;2022-08-19T11:40:43;19.57;;;17.17;;
6983;SDS011;3532;51.118;7.210;2022-08-19T11:43:09;18.00;;;16.17;;
6983;SDS011;3532;51.118;7.210;2022-08-19T11:45:34;16.63;;;15.03;;
6983;SDS011;3532;51.118;7.210;2022-08-19T11:48:00;20.53;;;18.33;;
6983;SDS011;3532;51.118;7.210;2022-08-19T11:50:26;16.23;;;14.63;;
6983;SDS011;3532;51.118;7.210;2022-08-19T11:52:53;16.97;;;15.33;;
6983;SDS011;3532;51.118;7.210;2022-08-19T11:55:19;18.90;;;17.07;;
6983;SDS011;3532;51.118;7.210;2022-08-19T11:57:45;14.40;;;13.10;;
6983;SDS011;3532;51.118;7.210;2022-08-19T12:00:11;19.30;;;14.90;;
6983;SDS011;3532;51.118;7.210;2022-08-19T12:02:38;13.63;;;12.23;;
6983;SDS011;3532;51.118;7.210;2022-08-19T12:05:04;13.63;;;12.23;;
6983;SDS011;3532;51.118;7.210;2022-08-19T12:07:30;12.97;;;11.87;;
6983;SDS011;3532;51.118;7.210;2022-08-19T12:09:58;14.20;;;12.83;;
6983;SDS011;3532;51.118;7.210;2022-08-19T12:12:23;13.93;;;12.50;;
6983;SDS011;3532;51.118;7.210;2022-08-19T12:14:49;11.93;;;10.03;;
6983;SDS011;3532;51.118;7.210;2022-08-19T12:17:21;11.37;;;10.43;;
6983;SDS011;3532;51.118;7.210;2022-08-19T12:19:47;11.23;;;10.33;;
6983;SDS011;3532;51.118;7.210;2022-08-19T12:22:12;12.77;;;11.60;;
6983;SDS011;3532;51.118;7.210;2022-08-19T12:24:37;11.87;;;10.77;;
6983;SDS011;3532;51.118;7.210;2022-08-19T12:27:03;12.20;;;11.07;;
6983;SDS011;3532;51.118;7.210;2022-08-19T12:29:29;11.00;;;10.10;;
6983;SDS011;3532;51.118;7.210;2022-08-19T12:31:54;11.80;;;10.73;;
6983;SDS011;3532;51.118;7.210;2022-08-19T12:34:26;12.43;;;11.20;;
6983;SDS011;3532;51.118;7.210;2022-08-19T12:36:55;12.33;;;11.23;;
6983;SDS011;3532;51.118;7.210;2022-08-19T12:39:21;11.27;;;10.27;;
6983;SDS011;3532;51.118;7.210;2022-08-19T12:41:46;10.57;;;9.50;;
6983;SDS011;3532;51.118;7.210;2022-08-19T12:44:14;10.67;;;9.70;;
6983;SDS011;3532;51.118;7.210;2022-08-19T12:46:39;11.47;;;10.37;;
6983;SDS011;3532;51.118;7.210;2022-08-19T12:49:04;11.00;;;10.00;;
6983;SDS011;3532;51.118;7.210;2022-08-19T12:51:30;11.53;;;10.33;;
6983;SDS011;3532;51.118;7.210;2022-08-19T12:53:56;8.53;;;7.83;;
6983;SDS011;3532;51.118;7.210;2022-08-19T12:56:21;9.67;;;8.87;;
6983;SDS011;3532;51.118;7.210;2022-08-19T12:58:47;8.57;;;7.83;;
6983;SDS011;3532;51.118;7.210;2022-08-19T13:01:13;7.57;;;6.97;;
6983;SDS011;3532;51.118;7.210;2022-08-19T13:03:39;8.10;;;7.20;;
6983;SDS011;3532;51.118;7.210;2022-08-19T13:06:05;6.93;;;6.37;;
6983;SDS011;3532;51.118;7.210;2022-08-19T13:08:31;7.80;;;7.07;;
6983;SDS011;3532;51.118;7.210;2022-08-19T13:10:56;7.33;;;6.67;;
6983;SDS011;3532;51.118;7.210;2022-08-19T13:13:23;6.37;;;5.87;;
6983;SDS011;3532;51.118;7.210;2022-08-19T13:15:51;6.40;;;5.80;;
6983;SDS011;3532;51.118;7.210;2022-08-19T13:18:16;7.53;;;6.93;;
6983;SDS011;3532;51.118;7.210;2022-08-19T13:20:41;7.60;;;6.87;;
6983;SDS011;3532;51.118;7.210;2022-08-19T13:23:07;7.70;;;6.07;;
6983;SDS011;3532;51.118;7.210;2022-08-19T13:25:33;7.97;;;6.80;;
6983;SDS011;3532;51.118;7.210;2022-08-19T13:28:00;7.77;;;7.10;;
6983;SDS011;3532;51.118;7.210;2022-08-19T13:30:25;7.77;;;6.70;;
6983;SDS011;3532;51.118;7.210;2022-08-19T13:33:09;6.03;;;5.63;;
6983;SDS011;3532;51.118;7.210;2022-08-19T13:35:45;7.50;;;6.80;;
6983;SDS011;3532;51.118;7.210;2022-08-19T13:38:12;6.83;;;6.13;;
6983;SDS011;3532;51.118;7.210;2022-08-19T13:40:38;6.73;;;6.13;;
6983;SDS011;3532;51.118;7.210;2022-08-19T13:43:04;7.47;;;6.77;;
6983;SDS011;3532;51.118;7.210;2022-08-19T13:45:30;6.83;;;6.33;;
6983;SDS011;3532;51.118;7.210;2022-08-19T13:48:00;6.40;;;5.90;;
6983;SDS011;3532;51.118;7.210;2022-08-19T13:50:29;8.50;;;7.20;;
6983;SDS011;3532;51.118;7.210;2022-08-19T13:52:58;8.03;;;7.30;;
6983;SDS011;3532;51.118;7.210;2022-08-19T13:55:24;7.60;;;6.90;;
6983;SDS011;3532;51.118;7.210;2022-08-19T13:57:51;6.97;;;6.40;;
6983;SDS011;3532;51.118;7.210;2022-08-19T14:00:17;9.33;;;6.93;;
6983;SDS011;3532;51.118;7.210;2022-08-19T14:02:44;7.90;;;6.97;;
6983;SDS011;3532;51.118;7.210;2022-08-19T14:05:10;8.47;;;6.67;;
6983;SDS011;3532;51.118;7.210;2022-08-19T14:07:37;6.57;;;5.97;;
6983;SDS011;3532;51.118;7.210;2022-08-19T14:10:03;7.13;;;6.37;;
6983;SDS011;3532;51.118;7.210;2022-08-19T14:12:29;7.77;;;7.07;;
6983;SDS011;3532;51.118;7.210;2022-08-19T14:14:56;6.80;;;6.20;;
6983;SDS011;3532;51.118;7.210;2022-08-19T14:17:22;6.77;;;6.17;;
6983;SDS011;3532;51.118;7.210;2022-08-19T14:19:47;7.37;;;6.70;;
6983;SDS011;3532;51.118;7.210;2022-08-19T14:22:12;6.50;;;5.97;;
6983;SDS011;3532;51.118;7.210;2022-08-19T14:24:38;7.10;;;6.40;;
6983;SDS011;3532;51.118;7.210;2022-08-19T14:27:04;7.17;;;6.57;;
6983;SDS011;3532;51.118;7.210;2022-08-19T14:29:30;6.50;;;5.90;;
6983;SDS011;3532;51.118;7.210;2022-08-19T14:31:56;6.00;;;5.50;;
6983;SDS011;3532;51.118;7.210;2022-08-19T14:34:23;6.47;;;5.87;;
6983;SDS011;3532;51.118;7.210;2022-08-19T14:36:49;6.40;;;5.90;;
6983;SDS011;3532;51.118;7.210;2022-08-19T14:39:15;5.80;;;5.20;;
6983;SDS011;3532;51.118;7.210;2022-08-19T14:41:41;6.67;;;5.97;;
6983;SDS011;3532;51.118;7.210;2022-08-19T14:44:10;6.53;;;5.93;;
6983;SDS011;3532;51.118;7.210;2022-08-19T14:46:37;5.37;;;4.93;;
6983;SDS011;3532;51.118;7.210;2022-08-19T14:49:03;6.67;;;5.63;;
6983;SDS011;3532;51.118;7.210;2022-08-19T14:51:29;6.60;;;5.83;;
6983;SDS011;3532;51.118;7.210;2022-08-19T14:53:54;6.83;;;6.17;;
6983;SDS011;3532;51.118;7.210;2022-08-19T14:56:21;6.57;;;5.97;;
6983;SDS011;3532;51.118;7.210;2022-08-19T14:58:48;5.33;;;4.93;;
6983;SDS011;3532;51.118;7.210;2022-08-19T15:01:16;6.27;;;5.53;;
6983;SDS011;3532;51.118;7.210;2022-08-19T15:03:42;5.97;;;5.37;;